createdAt,value
2018-05-10T00:00:43.654Z,0
2018-05-10T00:01:43.676Z,0
2018-05-10T00:02:43.692Z,0
2018-05-10T00:03:43.556Z,4
2018-05-10T00:04:43.742Z,4
2018-05-10T00:05:43.512Z,4
2018-05-10T00:06:43.790Z,4
2018-05-10T00:07:43.901Z,0
2018-05-10T00:08:44.065Z,0
2018-05-10T00:09:43.857Z,0
2018-05-10T00:10:43.888Z,0
2018-05-10T00:11:43.401Z,0
2018-05-10T00:12:43.928Z,0
2018-05-10T00:13:44.048Z,0
2018-05-10T00:14:43.458Z,0
2018-05-10T00:15:43.744Z,0
2018-05-10T00:16:44.030Z,0
2018-05-10T00:17:43.777Z,0
2018-05-10T00:18:44.056Z,0
2018-05-10T00:19:44.077Z,0
2018-05-10T00:20:44.110Z,0
2018-05-10T00:21:44.134Z,0
2018-05-10T00:22:44.160Z,0
2018-05-10T00:23:43.919Z,0
2018-05-10T00:24:43.942Z,0
2018-05-10T00:25:43.947Z,0
2018-05-10T00:26:43.966Z,0
2018-05-10T00:27:44.064Z,0
2018-05-10T00:28:44.403Z,0
2018-05-10T00:29:44.289Z,0
2018-05-10T00:30:44.054Z,0
2018-05-10T00:31:43.600Z,0
2018-05-10T00:32:44.115Z,0
2018-05-10T00:33:44.191Z,0
2018-05-10T00:34:44.435Z,0
2018-05-10T00:35:44.179Z,0
2018-05-10T00:36:44.203Z,0
2018-05-10T00:37:44.487Z,0
2018-05-10T00:38:44.253Z,0
2018-05-10T00:39:44.275Z,0
2018-05-10T00:40:44.593Z,0
2018-05-10T00:41:44.301Z,0
2018-05-10T00:42:44.337Z,0
2018-05-10T00:43:44.657Z,0
2018-05-10T00:44:44.634Z,0
2018-05-10T00:45:44.643Z,0
2018-05-10T00:46:44.671Z,0
2018-05-10T00:47:44.689Z,0
2018-05-10T00:48:44.462Z,0
2018-05-10T00:49:44.499Z,0
2018-05-10T00:50:44.762Z,0
2018-05-10T00:51:44.791Z,0
2018-05-10T00:52:44.559Z,0
2018-05-10T00:53:44.844Z,0
2018-05-10T00:54:44.879Z,0
2018-05-10T00:55:44.879Z,0
2018-05-10T00:56:44.652Z,0
2018-05-10T00:57:44.933Z,0
2018-05-10T00:58:44.746Z,0
2018-05-10T00:59:44.784Z,0
2018-05-10T01:00:44.991Z,0
2018-05-10T01:01:44.764Z,0
2018-05-10T01:02:44.781Z,0
2018-05-10T01:03:44.807Z,0
2018-05-10T01:04:44.582Z,0
2018-05-10T01:05:45.104Z,0
2018-05-10T01:06:44.871Z,0
2018-05-10T01:07:44.893Z,0
2018-05-10T01:08:44.942Z,0
2018-05-10T01:09:44.689Z,0
2018-05-10T01:10:45.220Z,0
2018-05-10T01:11:44.748Z,0
2018-05-10T01:12:45.264Z,0
2018-05-10T01:13:45.337Z,0
2018-05-10T01:14:45.048Z,0
2018-05-10T01:15:45.329Z,0
2018-05-10T01:16:45.102Z,0
2018-05-10T01:17:45.115Z,0
2018-05-10T01:18:45.435Z,0
2018-05-10T01:19:45.407Z,0
2018-05-10T01:20:45.173Z,0
2018-05-10T01:21:45.470Z,0
2018-05-10T01:22:45.222Z,0
2018-05-10T01:23:44.999Z,0
2018-05-10T01:24:45.516Z,0
2018-05-10T01:25:45.545Z,0
2018-05-10T01:26:45.578Z,0
2018-05-10T01:27:45.600Z,0
2018-05-10T01:28:45.665Z,0
2018-05-10T01:29:45.639Z,0
2018-05-10T01:30:45.155Z,0
2018-05-10T01:31:45.685Z,0
2018-05-10T01:32:45.718Z,0
2018-05-10T01:33:45.470Z,0
2018-05-10T01:34:45.750Z,0
2018-05-10T01:35:45.521Z,0
2018-05-10T01:36:45.556Z,0
2018-05-10T01:37:45.816Z,0
2018-05-10T01:38:45.856Z,0
2018-05-10T01:39:45.351Z,0
2018-05-10T01:40:45.372Z,0
2018-05-10T01:41:45.899Z,0
2018-05-10T01:42:45.925Z,0
2018-05-10T01:43:45.698Z,0
2018-05-10T01:44:45.708Z,0
2018-05-10T01:45:45.985Z,0
2018-05-10T01:46:46.015Z,0
2018-05-10T01:47:45.780Z,0
2018-05-10T01:48:45.799Z,0
2018-05-10T01:49:45.821Z,0
2018-05-10T01:50:45.843Z,0
2018-05-10T01:51:45.861Z,0
2018-05-10T01:52:46.112Z,0
2018-05-10T01:53:46.140Z,0
2018-05-10T01:54:46.194Z,0
2018-05-10T01:55:46.206Z,0
2018-05-10T01:56:46.248Z,0
2018-05-10T01:57:45.992Z,0
2018-05-10T01:58:46.277Z,0
2018-05-10T01:59:46.303Z,0
2018-05-10T02:00:46.321Z,0
2018-05-10T02:01:46.370Z,0
2018-05-10T02:02:46.362Z,0
2018-05-10T02:03:45.876Z,0
2018-05-10T02:04:46.404Z,0
2018-05-10T02:05:46.168Z,0
2018-05-10T02:06:46.393Z,0
2018-05-10T02:07:46.477Z,0
2018-05-10T02:08:46.239Z,0
2018-05-10T02:09:46.261Z,0
2018-05-10T02:10:46.615Z,0
2018-05-10T02:11:46.550Z,0
2018-05-10T02:12:45.813Z,0
2018-05-10T02:13:46.338Z,0
2018-05-10T02:14:46.802Z,0
2018-05-10T02:15:46.398Z,0
2018-05-10T02:16:46.662Z,0
2018-05-10T02:17:46.680Z,0
2018-05-10T02:18:46.710Z,0
2018-05-10T02:19:46.694Z,0
2018-05-10T02:20:46.721Z,0
2018-05-10T02:21:46.749Z,0
2018-05-10T02:22:46.259Z,0
2018-05-10T02:23:46.782Z,0
2018-05-10T02:24:46.804Z,0
2018-05-10T02:25:46.581Z,0
2018-05-10T02:26:46.849Z,0
2018-05-10T02:27:46.874Z,0
2018-05-10T02:28:46.919Z,0
2018-05-10T02:29:46.859Z,0
2018-05-10T02:30:46.962Z,0
2018-05-10T02:31:46.227Z,0
2018-05-10T02:32:46.753Z,0
2018-05-10T02:33:46.780Z,0
2018-05-10T02:34:47.047Z,0
2018-05-10T02:35:47.072Z,0
2018-05-10T02:36:46.831Z,0
2018-05-10T02:37:47.121Z,0
2018-05-10T02:38:46.886Z,0
2018-05-10T02:39:47.169Z,0
2018-05-10T02:40:46.945Z,0
2018-05-10T02:41:47.209Z,0
2018-05-10T02:42:46.725Z,0
2018-05-10T02:43:46.996Z,0
2018-05-10T02:44:47.326Z,0
2018-05-10T02:45:47.296Z,0
2018-05-10T02:46:47.328Z,0
2018-05-10T02:47:47.334Z,0
2018-05-10T02:48:47.427Z,0
2018-05-10T02:49:47.127Z,0
2018-05-10T02:50:47.394Z,0
2018-05-10T02:51:47.423Z,0
2018-05-10T02:52:47.437Z,0
2018-05-10T02:53:47.528Z,0
2018-05-10T02:54:47.482Z,0
2018-05-10T02:55:47.513Z,0
2018-05-10T02:56:47.543Z,0
2018-05-10T02:57:47.053Z,4
2018-05-10T02:58:47.585Z,4
2018-05-10T02:59:47.146Z,4
2018-05-10T03:00:47.629Z,4
2018-05-10T03:01:47.687Z,4
2018-05-10T03:02:47.413Z,4
2018-05-10T03:03:47.447Z,4
2018-05-10T03:04:47.704Z,4
2018-05-10T03:05:47.461Z,4
2018-05-10T03:06:47.747Z,4
2018-05-10T03:07:47.272Z,4
2018-05-10T03:08:47.777Z,4
2018-05-10T03:09:47.553Z,4
2018-05-10T03:10:47.316Z,0
2018-05-10T03:11:47.851Z,4
2018-05-10T03:12:47.881Z,4
2018-05-10T03:13:47.386Z,4
2018-05-10T03:14:47.950Z,8
2018-05-10T03:15:47.922Z,4
2018-05-10T03:16:47.691Z,8
2018-05-10T03:17:47.458Z,8
2018-05-10T03:18:47.983Z,8
2018-05-10T03:19:48.031Z,12
2018-05-10T03:20:47.788Z,12
2018-05-10T03:21:48.068Z,12
2018-05-10T03:22:48.090Z,12
2018-05-10T03:23:47.831Z,12
2018-05-10T03:24:47.875Z,16
2018-05-10T03:25:47.898Z,20
2018-05-10T03:26:47.922Z,24
2018-05-10T03:27:48.188Z,28
2018-05-10T03:28:47.965Z,32
2018-05-10T03:29:48.039Z,36
2018-05-10T03:30:48.273Z,40
2018-05-10T03:31:48.030Z,48
2018-05-10T03:32:48.312Z,56
2018-05-10T03:33:48.324Z,60
2018-05-10T03:34:48.091Z,72
2018-05-10T03:35:48.128Z,80
2018-05-10T03:36:48.137Z,88
2018-05-10T03:37:48.421Z,96
2018-05-10T03:38:47.915Z,108
2018-05-10T03:39:47.942Z,116
2018-05-10T03:40:48.475Z,132
2018-05-10T03:41:48.235Z,144
2018-05-10T03:42:48.515Z,160
2018-05-10T03:43:48.280Z,172
2018-05-10T03:44:48.361Z,188
2018-05-10T03:45:48.581Z,200
2018-05-10T03:46:48.355Z,216
2018-05-10T03:47:48.366Z,236
2018-05-10T03:48:48.380Z,248
2018-05-10T03:49:48.665Z,264
2018-05-10T03:50:48.177Z,280
2018-05-10T03:51:48.703Z,296
2018-05-10T03:52:48.733Z,316
2018-05-10T03:53:48.509Z,332
2018-05-10T03:54:48.261Z,352
2018-05-10T03:55:48.809Z,372
2018-05-10T03:56:48.817Z,392
2018-05-10T03:57:48.582Z,416
2018-05-10T03:58:48.600Z,436
2018-05-10T03:59:48.895Z,464
2018-05-10T04:00:48.618Z,488
2018-05-10T04:01:48.643Z,516
2018-05-10T04:02:48.662Z,544
2018-05-10T04:03:48.961Z,568
2018-05-10T04:04:48.780Z,600
2018-05-10T04:05:49.004Z,628
2018-05-10T04:06:48.522Z,656
2018-05-10T04:07:49.058Z,684
2018-05-10T04:08:48.805Z,712
2018-05-10T04:09:48.844Z,736
2018-05-10T04:10:48.861Z,756
2018-05-10T04:11:48.893Z,772
2018-05-10T04:12:49.154Z,824
2018-05-10T04:13:49.180Z,944
2018-05-10T04:14:49.205Z,960
2018-05-10T04:15:49.218Z,1116
2018-05-10T04:16:49.238Z,1120
2018-05-10T04:17:49.261Z,960
2018-05-10T04:18:49.283Z,912
2018-05-10T04:19:49.441Z,968
2018-05-10T04:20:49.328Z,1012
2018-05-10T04:21:49.339Z,1032
2018-05-10T04:22:49.411Z,1036
2018-05-10T04:23:49.132Z,1028
2018-05-10T04:24:49.150Z,1048
2018-05-10T04:25:49.398Z,1088
2018-05-10T04:26:49.458Z,1112
2018-05-10T04:27:49.650Z,1168
2018-05-10T04:28:49.505Z,1244
2018-05-10T04:29:49.268Z,1304
2018-05-10T04:30:49.289Z,1328
2018-05-10T04:31:49.562Z,1364
2018-05-10T04:32:49.338Z,1380
2018-05-10T04:33:49.100Z,1388
2018-05-10T04:34:49.666Z,1328
2018-05-10T04:35:49.843Z,1316
2018-05-10T04:36:49.151Z,1412
2018-05-10T04:37:49.171Z,1520
2018-05-10T04:38:49.193Z,1572
2018-05-10T04:39:49.213Z,1556
2018-05-10T04:40:49.750Z,1584
2018-05-10T04:41:49.764Z,1592
2018-05-10T04:42:49.539Z,1608
2018-05-10T04:43:49.827Z,1616
2018-05-10T04:44:49.591Z,1704
2018-05-10T04:45:49.862Z,1800
2018-05-10T04:46:49.888Z,1732
2018-05-10T04:47:49.404Z,1724
2018-05-10T04:48:49.427Z,1732
2018-05-10T04:49:49.242Z,1804
2018-05-10T04:50:49.733Z,1968
2018-05-10T04:51:49.743Z,2012
2018-05-10T04:52:50.039Z,2024
2018-05-10T04:53:50.040Z,2112
2018-05-10T04:54:50.429Z,2140
2018-05-10T04:55:50.081Z,2104
2018-05-10T04:56:50.111Z,2176
2018-05-10T04:57:49.655Z,2292
2018-05-10T04:58:49.894Z,2552
2018-05-10T04:59:50.174Z,2660
2018-05-10T05:00:50.165Z,2644
2018-05-10T05:01:50.192Z,2724
2018-05-10T05:02:49.708Z,2608
2018-05-10T05:03:49.978Z,2616
2018-05-10T05:04:50.060Z,2708
2018-05-10T05:05:49.788Z,2800
2018-05-10T05:06:50.065Z,2956
2018-05-10T05:07:50.338Z,3032
2018-05-10T05:08:50.921Z,3092
2018-05-10T05:09:50.374Z,3132
2018-05-10T05:10:50.154Z,3160
2018-05-10T05:11:50.487Z,3228
2018-05-10T05:12:50.314Z,3260
2018-05-10T05:13:50.200Z,3316
2018-05-10T05:14:50.478Z,3372
2018-05-10T05:15:50.505Z,3436
2018-05-10T05:16:50.525Z,3488
2018-05-10T05:17:50.560Z,3548
2018-05-10T05:18:50.563Z,3616
2018-05-10T05:19:50.628Z,3504
2018-05-10T05:20:49.846Z,3464
2018-05-10T05:21:50.623Z,3568
2018-05-10T05:22:50.418Z,3644
2018-05-10T05:23:50.690Z,3876
2018-05-10T05:24:50.714Z,4008
2018-05-10T05:25:50.737Z,4336
2018-05-10T05:26:50.880Z,4520
2018-05-10T05:27:50.786Z,4264
2018-05-10T05:28:50.553Z,4056
2018-05-10T05:29:50.838Z,3940
2018-05-10T05:30:50.590Z,4240
2018-05-10T05:31:50.878Z,4548
2018-05-10T05:32:50.513Z,4484
2018-05-10T05:33:50.410Z,4688
2018-05-10T05:34:50.731Z,4640
2018-05-10T05:35:50.959Z,4932
2018-05-10T05:36:50.735Z,4992
2018-05-10T05:37:50.743Z,5044
2018-05-10T05:38:50.767Z,5088
2018-05-10T05:39:50.538Z,5124
2018-05-10T05:40:50.820Z,5140
2018-05-10T05:41:50.834Z,5124
2018-05-10T05:42:50.862Z,5072
2018-05-10T05:43:50.878Z,5004
2018-05-10T05:44:50.902Z,4912
2018-05-10T05:45:50.938Z,4836
2018-05-10T05:46:50.958Z,4788
2018-05-10T05:47:51.226Z,4740
2018-05-10T05:48:50.983Z,4712
2018-05-10T05:49:51.058Z,4696
2018-05-10T05:50:51.031Z,4696
2018-05-10T05:51:51.058Z,4680
2018-05-10T05:52:50.822Z,4668
2018-05-10T05:53:51.099Z,4684
2018-05-10T05:54:51.473Z,4720
2018-05-10T05:55:51.388Z,4752
2018-05-10T05:56:51.161Z,4792
2018-05-10T05:57:51.441Z,4828
2018-05-10T05:58:51.207Z,4844
2018-05-10T05:59:51.234Z,4872
2018-05-10T06:00:51.022Z,4896
2018-05-10T06:01:51.289Z,4920
2018-05-10T06:02:51.305Z,4948
2018-05-10T06:03:51.576Z,4976
2018-05-10T06:04:51.497Z,5024
2018-05-10T06:05:51.634Z,5048
2018-05-10T06:06:51.663Z,5064
2018-05-10T06:07:51.684Z,5080
2018-05-10T06:08:52.044Z,5076
2018-05-10T06:09:51.478Z,5088
2018-05-10T06:10:51.500Z,5112
2018-05-10T06:11:51.529Z,5168
2018-05-10T06:12:51.784Z,5212
2018-05-10T06:13:51.834Z,5252
2018-05-10T06:14:51.589Z,5296
2018-05-10T06:15:52.346Z,5336
2018-05-10T06:16:51.641Z,5372
2018-05-10T06:17:51.911Z,5380
2018-05-10T06:18:51.939Z,5380
2018-05-10T06:19:52.011Z,5412
2018-05-10T06:20:51.983Z,5424
2018-05-10T06:21:52.009Z,5436
2018-05-10T06:22:51.514Z,5440
2018-05-10T06:23:52.047Z,5468
2018-05-10T06:24:52.286Z,5508
2018-05-10T06:25:52.099Z,5548
2018-05-10T06:26:52.121Z,5588
2018-05-10T06:27:52.146Z,5600
2018-05-10T06:28:52.171Z,5596
2018-05-10T06:29:51.935Z,5604
2018-05-10T06:30:51.963Z,5612
2018-05-10T06:31:51.978Z,5664
2018-05-10T06:32:52.264Z,5680
2018-05-10T06:33:52.281Z,5720
2018-05-10T06:34:52.367Z,5732
2018-05-10T06:35:52.075Z,5740
2018-05-10T06:36:52.101Z,5764
2018-05-10T06:37:52.123Z,5804
2018-05-10T06:38:51.893Z,5816
2018-05-10T06:39:51.900Z,5824
2018-05-10T06:40:52.432Z,5836
2018-05-10T06:41:52.460Z,5856
2018-05-10T06:42:52.480Z,5868
2018-05-10T06:43:52.500Z,5888
2018-05-10T06:44:52.016Z,5916
2018-05-10T06:45:52.301Z,5960
2018-05-10T06:46:52.628Z,5984
2018-05-10T06:47:52.353Z,6028
2018-05-10T06:48:52.629Z,6036
2018-05-10T06:49:52.706Z,6060
2018-05-10T06:50:52.681Z,6080
2018-05-10T06:51:52.705Z,6108
2018-05-10T06:52:52.724Z,6120
2018-05-10T06:53:52.753Z,6132
2018-05-10T06:54:52.904Z,6136
2018-05-10T06:55:52.802Z,6156
2018-05-10T06:56:52.828Z,6144
2018-05-10T06:57:52.843Z,6196
2018-05-10T06:58:52.874Z,6244
2018-05-10T06:59:52.893Z,6280
2018-05-10T07:00:52.921Z,6288
2018-05-10T07:01:52.945Z,6276
2018-05-10T07:02:52.963Z,6336
2018-05-10T07:03:52.478Z,6380
2018-05-10T07:04:53.061Z,6416
2018-05-10T07:05:52.782Z,6444
2018-05-10T07:06:53.100Z,6476
2018-05-10T07:07:53.080Z,6392
2018-05-10T07:08:52.600Z,6512
2018-05-10T07:09:53.617Z,6576
2018-05-10T07:10:52.897Z,6600
2018-05-10T07:11:53.198Z,6644
2018-05-10T07:12:52.956Z,6680
2018-05-10T07:13:53.228Z,6708
2018-05-10T07:14:53.007Z,6732
2018-05-10T07:15:53.022Z,6756
2018-05-10T07:16:53.310Z,6788
2018-05-10T07:17:53.330Z,6836
2018-05-10T07:18:53.353Z,6868
2018-05-10T07:19:53.177Z,6880
2018-05-10T07:20:53.394Z,6924
2018-05-10T07:21:53.432Z,6944
2018-05-10T07:22:53.513Z,6976
2018-05-10T07:23:53.215Z,6984
2018-05-10T07:24:53.233Z,7020
2018-05-10T07:25:53.512Z,7052
2018-05-10T07:26:53.308Z,7092
2018-05-10T07:27:53.306Z,7096
2018-05-10T07:28:53.590Z,7112
2018-05-10T07:29:53.608Z,7148
2018-05-10T07:30:53.710Z,7184
2018-05-10T07:31:53.654Z,7216
2018-05-10T07:32:53.766Z,7248
2018-05-10T07:33:53.451Z,7316
2018-05-10T07:34:54.743Z,7380
2018-05-10T07:35:53.504Z,7436
2018-05-10T07:36:53.524Z,7484
2018-05-10T07:37:53.554Z,7560
2018-05-10T07:38:53.831Z,7664
2018-05-10T07:39:53.650Z,7752
2018-05-10T07:40:53.628Z,7860
2018-05-10T07:41:53.889Z,7944
2018-05-10T07:42:53.916Z,7968
2018-05-10T07:43:53.960Z,8084
2018-05-10T07:44:53.720Z,8288
2018-05-10T07:45:53.488Z,8476
2018-05-10T07:46:53.769Z,8708
2018-05-10T07:47:53.793Z,8940
2018-05-10T07:48:53.828Z,9160
2018-05-10T07:49:53.845Z,9464
2018-05-10T07:50:54.133Z,9788
2018-05-10T07:51:54.139Z,10156
2018-05-10T07:52:54.170Z,10632
2018-05-10T07:53:54.191Z,11076
2018-05-10T07:54:54.009Z,11516
2018-05-10T07:55:53.984Z,11840
2018-05-10T07:56:54.010Z,11976
2018-05-10T07:57:54.030Z,11936
2018-05-10T07:58:53.804Z,11740
2018-05-10T07:59:53.850Z,10000
2018-05-10T08:00:54.294Z,11392
2018-05-10T08:01:54.387Z,11196
2018-05-10T08:02:54.420Z,11248
2018-05-10T08:03:54.260Z,9012
2018-05-10T08:04:53.956Z,11856
2018-05-10T08:05:53.982Z,12084
2018-05-10T08:06:54.268Z,12216
2018-05-10T08:07:54.535Z,12408
2018-05-10T08:08:54.582Z,12740
2018-05-10T08:09:54.643Z,13052
2018-05-10T08:10:54.620Z,13532
2018-05-10T08:11:54.397Z,13932
2018-05-10T08:12:54.414Z,14220
2018-05-10T08:13:54.703Z,14432
2018-05-10T08:14:54.469Z,14576
2018-05-10T08:15:54.495Z,14728
2018-05-10T08:16:54.319Z,14804
2018-05-10T08:17:54.793Z,14808
2018-05-10T08:18:54.824Z,14820
2018-05-10T08:19:54.838Z,14708
2018-05-10T08:20:54.874Z,14736
2018-05-10T08:21:54.925Z,14728
2018-05-10T08:22:54.669Z,14460
2018-05-10T08:23:54.946Z,13532
2018-05-10T08:24:55.031Z,11776
2018-05-10T08:25:54.741Z,11596
2018-05-10T08:26:54.520Z,12068
2018-05-10T08:27:54.797Z,11388
2018-05-10T08:28:55.073Z,11320
2018-05-10T08:29:56.304Z,14592
2018-05-10T08:30:55.123Z,14652
2018-05-10T08:31:55.153Z,14196
2018-05-10T08:32:54.673Z,12092
2018-05-10T08:33:54.952Z,10992
2018-05-10T08:34:54.989Z,11712
2018-05-10T08:35:55.256Z,12428
2018-05-10T08:36:55.412Z,14560
2018-05-10T08:37:54.801Z,14588
2018-05-10T08:38:55.105Z,14456
2018-05-10T08:39:55.426Z,14244
2018-05-10T08:40:55.396Z,14068
2018-05-10T08:41:55.164Z,14068
2018-05-10T08:42:55.007Z,13840
2018-05-10T08:43:55.213Z,13508
2018-05-10T08:44:55.556Z,13380
2018-05-10T08:45:55.258Z,13356
2018-05-10T08:46:55.541Z,13304
2018-05-10T08:47:55.570Z,13408
2018-05-10T08:48:55.083Z,13616
2018-05-10T08:49:55.717Z,13704
2018-05-10T08:50:55.144Z,13900
2018-05-10T08:51:56.279Z,14188
2018-05-10T08:52:55.700Z,14400
2018-05-10T08:53:55.722Z,14680
2018-05-10T08:54:55.806Z,15136
2018-05-10T08:55:55.523Z,15460
2018-05-10T08:56:55.595Z,15840
2018-05-10T08:57:55.571Z,15712
2018-05-10T08:58:55.593Z,13368
2018-05-10T08:59:55.711Z,12432
2018-05-10T09:00:55.926Z,14464
2018-05-10T09:01:55.429Z,12356
2018-05-10T09:02:55.959Z,10084
2018-05-10T09:03:55.995Z,12232
2018-05-10T09:04:56.013Z,12720
2018-05-10T09:05:55.778Z,12668
2018-05-10T09:06:56.067Z,12360
2018-05-10T09:07:55.578Z,12024
2018-05-10T09:08:56.105Z,11828
2018-05-10T09:09:56.196Z,11676
2018-05-10T09:10:56.162Z,11896
2018-05-10T09:11:56.192Z,12300
2018-05-10T09:12:55.967Z,11984
2018-05-10T09:13:55.994Z,7792
2018-05-10T09:14:56.281Z,7676
2018-05-10T09:15:56.301Z,11692
2018-05-10T09:16:56.081Z,11756
2018-05-10T09:17:56.352Z,11732
2018-05-10T09:18:56.120Z,11720
2018-05-10T09:19:56.405Z,11664
2018-05-10T09:20:56.425Z,11600
2018-05-10T09:21:56.456Z,11560
2018-05-10T09:22:56.231Z,11584
2018-05-10T09:23:56.508Z,11752
2018-05-10T09:24:56.586Z,11788
2018-05-10T09:25:56.619Z,11852
2018-05-10T09:26:56.638Z,11988
2018-05-10T09:27:56.611Z,12144
2018-05-10T09:28:56.146Z,12352
2018-05-10T09:29:56.661Z,12568
2018-05-10T09:30:56.700Z,13176
2018-05-10T09:31:56.458Z,13628
2018-05-10T09:32:56.497Z,13480
2018-05-10T09:33:56.909Z,13608
2018-05-10T09:34:56.539Z,13600
2018-05-10T09:35:56.569Z,13712
2018-05-10T09:36:56.613Z,13908
2018-05-10T09:37:56.670Z,14160
2018-05-10T09:38:56.894Z,10760
2018-05-10T09:39:56.722Z,14428
2018-05-10T09:40:57.029Z,14576
2018-05-10T09:41:56.472Z,14764
2018-05-10T09:42:56.999Z,15168
2018-05-10T09:43:57.035Z,15264
2018-05-10T09:44:57.394Z,15456
2018-05-10T09:45:56.826Z,15712
2018-05-10T09:46:56.854Z,16096
2018-05-10T09:47:56.626Z,16480
2018-05-10T09:48:57.179Z,16736
2018-05-10T09:49:57.199Z,16960
2018-05-10T09:50:56.964Z,17280
2018-05-10T09:51:57.006Z,18112
2018-05-10T09:52:56.770Z,18624
2018-05-10T09:53:57.057Z,19104
2018-05-10T09:54:57.386Z,19296
2018-05-10T09:55:57.115Z,19712
2018-05-10T09:56:57.390Z,20064
2018-05-10T09:57:57.421Z,20224
2018-05-10T09:58:57.446Z,20288
2018-05-10T09:59:57.074Z,20544
2018-05-10T10:00:57.509Z,21024
2018-05-10T10:01:57.280Z,21632
2018-05-10T10:02:57.057Z,21952
2018-05-10T10:03:57.085Z,22368
2018-05-10T10:04:57.622Z,22560
2018-05-10T10:05:57.679Z,22880
2018-05-10T10:06:57.169Z,22976
2018-05-10T10:07:57.685Z,21568
2018-05-10T10:08:57.713Z,18336
2018-05-10T10:09:57.798Z,17952
2018-05-10T10:10:57.789Z,17472
2018-05-10T10:11:57.800Z,15052
2018-05-10T10:12:57.828Z,18144
2018-05-10T10:13:57.868Z,17152
2018-05-10T10:14:57.385Z,14620
2018-05-10T10:15:57.993Z,15328
2018-05-10T10:16:57.990Z,15992
2018-05-10T10:17:57.751Z,21184
2018-05-10T10:18:58.045Z,14196
2018-05-10T10:19:57.561Z,20416
2018-05-10T10:20:57.590Z,20480
2018-05-10T10:21:58.127Z,19904
2018-05-10T10:22:58.162Z,20960
2018-05-10T10:23:57.942Z,20896
2018-05-10T10:24:58.268Z,20416
2018-05-10T10:25:57.995Z,21120
2018-05-10T10:26:57.768Z,21120
2018-05-10T10:27:58.305Z,21152
2018-05-10T10:28:58.079Z,21600
2018-05-10T10:29:58.116Z,12372
2018-05-10T10:30:58.396Z,22144
2018-05-10T10:31:58.171Z,23328
2018-05-10T10:32:58.201Z,24832
2018-05-10T10:33:58.483Z,27808
2018-05-10T10:34:58.556Z,31488
2018-05-10T10:35:58.281Z,32480
2018-05-10T10:36:58.313Z,28608
2018-05-10T10:37:58.360Z,23456
2018-05-10T10:38:58.624Z,20352
2018-05-10T10:39:58.401Z,20416
2018-05-10T10:40:58.460Z,20672
2018-05-10T10:41:58.724Z,20800
2018-05-10T10:42:58.247Z,21088
2018-05-10T10:43:58.582Z,21024
2018-05-10T10:44:58.813Z,20128
2018-05-10T10:45:58.610Z,10032
2018-05-10T10:46:58.881Z,10112
2018-05-10T10:47:58.166Z,10792
2018-05-10T10:48:58.686Z,12252
2018-05-10T10:49:58.752Z,21920
2018-05-10T10:50:58.989Z,22464
2018-05-10T10:51:59.042Z,22720
2018-05-10T10:52:58.891Z,19424
2018-05-10T10:53:59.372Z,22880
2018-05-10T10:54:58.868Z,23584
2018-05-10T10:55:59.166Z,24096
2018-05-10T10:56:59.180Z,24928
2018-05-10T10:57:58.963Z,26272
2018-05-10T10:58:59.247Z,22176
2018-05-10T10:59:59.601Z,19296
2018-05-10T11:00:59.307Z,25472
2018-05-10T11:01:59.240Z,13624
2018-05-10T11:02:59.119Z,13056
2018-05-10T11:03:59.407Z,16608
2018-05-10T11:04:58.924Z,11136
2018-05-10T11:05:59.447Z,10892
2018-05-10T11:06:59.485Z,11536
2018-05-10T11:07:59.510Z,12392
2018-05-10T11:08:59.577Z,13692
2018-05-10T11:09:59.565Z,15032
2018-05-10T11:10:59.346Z,30400
2018-05-10T11:11:59.375Z,30112
2018-05-10T11:12:59.658Z,14048
2018-05-10T11:13:59.445Z,16800
2018-05-10T11:14:59.912Z,20128
2018-05-10T11:15:59.570Z,34528
2018-05-10T11:16:59.270Z,35680
2018-05-10T11:17:59.832Z,37056
2018-05-10T11:18:59.589Z,39008
2018-05-10T11:19:59.869Z,16696
2018-05-10T11:20:59.492Z,36608
2018-05-10T11:21:59.941Z,25536
2018-05-10T11:22:59.949Z,42176
2018-05-10T11:24:00.002Z,15476
2018-05-10T11:24:59.795Z,16028
2018-05-10T11:26:00.059Z,20576
2018-05-10T11:27:00.101Z,29760
2018-05-10T11:28:00.122Z,13968
2018-05-10T11:28:59.897Z,13512
2018-05-10T11:29:59.934Z,13872
2018-05-10T11:30:59.448Z,14828
2018-05-10T11:32:00.236Z,16040
2018-05-10T11:33:00.482Z,17984
2018-05-10T11:34:00.303Z,47104
2018-05-10T11:35:00.331Z,26784
2018-05-10T11:36:00.372Z,21856
2018-05-10T11:37:00.138Z,34752
2018-05-10T11:38:00.419Z,18272
2018-05-10T11:39:00.268Z,19456
2018-05-10T11:40:00.481Z,46016
2018-05-10T11:41:00.517Z,45504
2018-05-10T11:42:00.293Z,44352
2018-05-10T11:43:00.578Z,47776
2018-05-10T11:44:00.595Z,48064
2018-05-10T11:45:00.656Z,48608
2018-05-10T11:46:00.403Z,42848
2018-05-10T11:47:00.685Z,50016
2018-05-10T11:48:00.760Z,35232
2018-05-10T11:49:00.484Z,33312
2018-05-10T11:50:00.513Z,19104
2018-05-10T11:51:00.852Z,49664
2018-05-10T11:52:00.598Z,38944
2018-05-10T11:53:00.879Z,60928
2018-05-10T11:54:00.752Z,53120
2018-05-10T11:55:00.704Z,53952
2018-05-10T11:56:00.510Z,50880
2018-05-10T11:57:01.000Z,59232
2018-05-10T11:58:01.036Z,52640
2018-05-10T11:59:01.067Z,48000
2018-05-10T12:00:01.147Z,42432
2018-05-10T12:01:00.885Z,32096
2018-05-10T12:02:01.163Z,17184
2018-05-10T12:03:00.940Z,11072
2018-05-10T12:04:01.224Z,10748
2018-05-10T12:05:01.079Z,11516
2018-05-10T12:06:01.407Z,13272
2018-05-10T12:07:01.051Z,14832
2018-05-10T12:08:01.095Z,16128
2018-05-10T12:09:01.124Z,17056
2018-05-10T12:10:01.154Z,18752
2018-05-10T12:11:01.427Z,41728
2018-05-10T12:12:01.465Z,49376
2018-05-10T12:13:01.248Z,59680
2018-05-10T12:14:01.265Z,15992
2018-05-10T12:15:01.303Z,60704
2018-05-10T12:16:01.603Z,58944
2018-05-10T12:17:01.123Z,46400
2018-05-10T12:18:01.655Z,9712
2018-05-10T12:19:01.694Z,9380
2018-05-10T12:20:01.746Z,9800
2018-05-10T12:21:01.856Z,10420
2018-05-10T12:22:01.782Z,11356
2018-05-10T12:23:01.550Z,13708
2018-05-10T12:24:01.859Z,14880
2018-05-10T12:25:01.688Z,13980
2018-05-10T12:26:01.436Z,14276
2018-05-10T12:27:01.681Z,14836
2018-05-10T12:28:02.017Z,16352
2018-05-10T12:29:02.085Z,62688
2018-05-10T12:30:02.030Z,60288
2018-05-10T12:31:02.156Z,60608
2018-05-10T12:32:01.785Z,62016
2018-05-10T12:33:02.118Z,62688
2018-05-10T12:34:02.148Z,60352
2018-05-10T12:35:02.224Z,61120
2018-05-10T12:36:02.292Z,61408
2018-05-10T12:37:01.772Z,58752
2018-05-10T12:38:02.274Z,57792
2018-05-10T12:39:02.371Z,57248
2018-05-10T12:40:02.368Z,60096
2018-05-10T12:41:02.386Z,60864
2018-05-10T12:42:02.439Z,56448
2018-05-10T12:43:02.438Z,50944
2018-05-10T12:44:01.960Z,47392
2018-05-10T12:45:02.254Z,48032
2018-05-10T12:46:02.261Z,24256
2018-05-10T12:47:02.295Z,57824
2018-05-10T12:48:02.067Z,57760
2018-05-10T12:49:02.604Z,61184
2018-05-10T12:50:02.484Z,64704
2018-05-10T12:51:02.220Z,51200
2018-05-10T12:52:02.482Z,62912
2018-05-10T12:53:02.497Z,56160
2018-05-10T12:54:02.532Z,26528
2018-05-10T12:55:02.814Z,20128
2018-05-10T12:56:02.968Z,19040
2018-05-10T12:57:02.936Z,22016
2018-05-10T12:58:02.696Z,65376
2018-05-10T12:59:02.958Z,17632
2018-05-10T13:00:02.983Z,16184
2018-05-10T13:01:02.753Z,14976
2018-05-10T13:02:02.803Z,14756
2018-05-10T13:03:03.267Z,15000
2018-05-10T13:04:02.848Z,15312
2018-05-10T13:05:03.135Z,15956
2018-05-10T13:06:02.964Z,17824
2018-05-10T13:07:03.053Z,22560
2018-05-10T13:08:03.227Z,25408
2018-05-10T13:09:02.755Z,21984
2018-05-10T13:10:02.817Z,19680
2018-05-10T13:11:03.387Z,63648
2018-05-10T13:12:03.104Z,63136
2018-05-10T13:13:03.400Z,53632
2018-05-10T13:14:02.905Z,69792
2018-05-10T13:15:03.202Z,20736
2018-05-10T13:16:03.692Z,68928
2018-05-10T13:17:03.503Z,69600
2018-05-10T13:18:03.275Z,72416
2018-05-10T13:19:03.307Z,63648
2018-05-10T13:20:03.351Z,45888
2018-05-10T13:21:03.166Z,67456
2018-05-10T13:22:03.402Z,64224
2018-05-10T13:23:03.719Z,16640
2018-05-10T13:24:03.741Z,19296
2018-05-10T13:25:03.763Z,63200
2018-05-10T13:26:03.797Z,63584
2018-05-10T13:27:03.563Z,70400
2018-05-10T13:28:03.338Z,74592
2018-05-10T13:29:04.171Z,78112
2018-05-10T13:30:03.684Z,77984